Edgewater, New Jersey
Current Conditions -  °F | °C
As of 12:51 PM on Sunday 21 Dec 2014 (Local Time) from KNYC Reporting Station
Overcast Overcast  
Wind Chill: -2°   Ceiling: 1900
Heat Index:   Visibility: 9mi
Dew Point: -4°   Wind: 7mph
Humidity: 70%   Direction: 300°WNW
Pressure: 30.31"   Gusts: NA
Location:  40.83°N, 73.97°W
Report Text: KNYC 211751Z 30006KT 9SM BKN019 OVC030 01/M04 A3031 RMK AO2 SLP255 T00111039 10011 21006 58010 $
Loading
Personal Weather Stations






























Interactive Weather Map New forecast layout! Learn more

10-Day Weather Forecast

Advertisements
Track Severe Weather on mobile